Airfield :
LOGIN :

Register | Disclaimer

   EN    FR    IT 

 










Legend :    VFR   Marginal VFR   IFR   Intensive IFR   Very Intensive IFR
Visi :
Ceiling :
>= 8 km
>= 3000ft
5 to 8 km
1000 to 3000 ft
1500m to 5 km
500 to 1000 ft
800 to 1500m
200 to 500 ft
< 800m
< 200 ft
Symbols :   Thunderstorms  Fog  Heavy snow  Heavy precipitations  Wind > 20 kt
SIGMETs :     Misc.  Thunderstorms  Icing  Turbulence  Mountain Waves  Volcanic Ashes







- Airport Elevation : 297 ft


EGVP - Middle Wallop

CURRENT METAR :
  • 161550Z 34005KT 9999 SCT018 SCT032 BKN044 19/16 Q1021 NOSIG RMK WHT WHT

EXPIRED METARs :
  • 161450Z 30007KT 9999 BKN018 SCT032 BKN042 20/15 Q1022 TEMPO BKN012 RMK WHT TEMPO GRN
  • 161422Z 31006KT 9999 BKN019 BKN030 19/15 Q1021 TEMPO BKN012 RMK WHT TEMPO GRN
  • 161350Z 32007KT 9999 FEW016 BKN020 19/15 Q1022 TEMPO BKN014 RMK WHT TEMPO GRN
  • 161322Z 27006KT 9999 FEW014 BKN018 19/15 Q1022 TEMPO BKN014 RMK WHT TEMPO GRN
  • 161250Z 25007KT 9999 BKN016 BKN026 19/15 Q1022 TEMPO BKN012 RMK WHT TEMPO GRN

TAF AMD TAF EGVP
Valid from the 16 at 15:00 until the 17 at 00:00 UTC


161523Z 1615/1624 31007KT 9999 BKN018
TEMPO 1615/1617 BKN012
BECMG 1617/1619 OVC011
TEMPO 1617/1622 4000 -DZ BKN005
BECMG 1622/1624 SCT024
ATIS : +44 1980 674 142
No reported NOTAMs for that airfield.



MET'MAP, your aeronautical weather chart ! - Copyright ORBIFLY December 2007 - Disclaimer

ORBIFLY MET'MAP TEAM :

Programming & Development : Alexandra Zaïnal
Concept & Development : Baudouin d'Aumeries
Co-Development & Prog : Marc-Olivier Méhu
Technical & hardware support : Manuel Goepfert

Contact : metmap@orbifly.com




SOURCES & CREDITS :

   NOAA